Time;durP1;ratioP1;P1;durP2;ratioP2;P2;SDS_P1;SDS_P2;PMS_P1;PMS_P2;Temp;Humidity;BMP_temperature;BMP_pressure;BME280_temperature;BME280_humidity;BME280_pressure;Samples;Min_cycle;Max_cycle;Signal;HPM_P1;HPM_P2
2020/12/15 00:00:23;;;;;;;10.63;1.42;;;9.60;99.90;;;;;;5069093;28;20044;-51
2020/12/15 00:02:49;;;;;;;11.23;1.88;;;9.60;99.90;;;;;;5068656;28;20036;-52
2020/12/15 00:05:15;;;;;;;11.18;1.73;;;9.60;99.90;;;;;;5068309;28;20040;-50
2020/12/15 00:07:40;;;;;;;15.15;1.48;;;9.50;99.90;;;;;;5068640;28;20040;-50
2020/12/15 00:10:06;;;;;;;6.88;1.60;;;9.50;99.90;;;;;;5068700;28;20645;-51
2020/12/15 00:12:32;;;;;;;16.90;2.15;;;9.40;99.90;;;;;;5068858;28;20048;-50
2020/12/15 00:14:57;;;;;;;12.15;1.73;;;9.40;99.90;;;;;;5068058;28;20036;-52
2020/12/15 00:17:23;;;;;;;13.82;2.20;;;9.50;99.90;;;;;;5068432;28;20119;-50
2020/12/15 00:19:49;;;;;;;18.92;1.77;;;9.40;99.90;;;;;;5068648;28;20055;-49
2020/12/15 00:22:15;;;;;;;10.23;1.50;;;9.40;99.90;;;;;;5067809;28;20066;-49
2020/12/15 00:24:41;;;;;;;11.05;1.75;;;9.40;99.90;;;;;;5068120;28;20071;-50
2020/12/15 00:27:08;;;;;;;13.25;1.67;;;9.40;99.90;;;;;;5068101;28;20060;-49
2020/12/15 00:29:35;;;;;;;21.77;1.95;;;9.40;99.90;;;;;;5068332;28;20112;-50
2020/12/15 00:32:01;;;;;;;9.82;1.58;;;9.50;99.90;;;;;;5068418;28;20040;-50
2020/12/15 00:34:27;;;;;;;13.48;1.70;;;9.50;99.90;;;;;;5068131;28;20506;-50
2020/12/15 00:36:56;;;;;;;12.23;1.75;;;9.50;99.90;;;;;;5067971;28;20389;-51
2020/12/15 00:39:21;;;;;;;21.30;1.75;;;9.50;99.90;;;;;;5067713;28;20824;-52
2020/12/15 00:41:48;;;;;;;19.30;2.13;;;9.50;99.90;;;;;;5068468;28;20040;-49
2020/12/15 00:44:15;;;;;;;14.63;1.88;;;9.50;99.90;;;;;;5067865;28;20032;-49
2020/12/15 00:46:40;;;;;;;13.98;1.92;;;9.50;99.90;;;;;;5068198;28;20110;-49
2020/12/15 00:49:06;;;;;;;19.17;1.92;;;9.50;99.90;;;;;;5070768;28;20067;-50
2020/12/15 00:51:31;;;;;;;8.68;1.63;;;9.50;99.90;;;;;;5067989;28;20060;-49
2020/12/15 00:53:57;;;;;;;21.30;2.33;;;9.50;99.90;;;;;;5067780;28;20040;-51
2020/12/15 00:56:23;;;;;;;12.45;1.98;;;9.60;99.90;;;;;;5068155;28;20398;-49
2020/12/15 00:58:48;;;;;;;8.70;1.73;;;9.70;99.90;;;;;;5049635;28;20033;-49
2020/12/15 01:01:14;;;;;;;12.75;2.88;;;9.70;99.90;;;;;;5067957;28;20458;-49
2020/12/15 01:03:40;;;;;;;11.30;1.70;;;9.70;99.90;;;;;;5067985;28;20040;-51
2020/12/15 01:06:07;;;;;;;7.93;1.30;;;9.60;99.90;;;;;;5070388;28;20042;-51
2020/12/15 01:08:33;;;;;;;11.05;1.90;;;9.60;99.90;;;;;;5067707;28;20029;-52
2020/12/15 01:10:59;;;;;;;17.80;2.80;;;9.60;99.90;;;;;;5067355;28;20218;-51
2020/12/15 01:13:25;;;;;;;18.27;2.33;;;9.60;99.90;;;;;;5066784;28;20111;-50
2020/12/15 01:15:50;;;;;;;14.40;2.28;;;9.50;99.90;;;;;;5066582;28;20120;-49
2020/12/15 01:18:16;;;;;;;14.60;1.83;;;9.50;99.90;;;;;;5066907;28;20029;-49
2020/12/15 01:20:42;;;;;;;10.65;1.45;;;9.40;99.90;;;;;;5067630;28;20033;-50
2020/12/15 01:23:07;;;;;;;13.65;1.63;;;9.40;99.90;;;;;;5067623;28;20539;-49
2020/12/15 01:25:33;;;;;;;17.75;1.45;;;9.30;99.90;;;;;;5067874;28;20071;-49
2020/12/15 01:27:58;;;;;;;12.30;1.65;;;9.20;99.90;;;;;;5067579;28;20028;-49
2020/12/15 01:30:24;;;;;;;12.35;1.63;;;9.20;99.90;;;;;;5067826;28;20021;-50
2020/12/15 01:32:50;;;;;;;18.13;1.88;;;9.20;99.90;;;;;;5067711;28;20067;-49
2020/12/15 01:35:18;;;;;;;15.13;1.70;;;9.30;99.90;;;;;;5067082;28;20071;-50
2020/12/15 01:37:48;;;;;;;10.88;2.38;;;9.20;99.90;;;;;;5067361;28;20115;-48
2020/12/15 01:40:13;;;;;;;16.10;1.65;;;9.40;99.90;;;;;;5067641;28;20036;-48
2020/12/15 01:42:39;;;;;;;22.80;2.17;;;9.30;99.90;;;;;;5067621;28;20033;-49
2020/12/15 01:45:06;;;;;;;16.40;2.13;;;9.40;99.90;;;;;;5067053;28;20372;-49
2020/12/15 01:47:32;;;;;;;16.88;1.92;;;9.40;99.90;;;;;;5068239;28;20029;-48
2020/12/15 01:49:58;;;;;;;19.10;1.80;;;9.40;99.90;;;;;;5071060;28;20036;-50
2020/12/15 01:52:27;;;;;;;19.95;2.05;;;9.40;99.90;;;;;;5071317;28;20401;-51
2020/12/15 01:54:53;;;;;;;9.15;2.28;;;9.50;99.90;;;;;;5071102;28;20074;-49
2020/12/15 01:57:18;;;;;;;18.83;1.95;;;9.60;99.90;;;;;;5071487;28;20063;-50
2020/12/15 01:59:45;;;;;;;21.20;2.05;;;9.60;99.90;;;;;;5070952;28;20040;-49
2020/12/15 02:02:11;;;;;;;19.27;1.63;;;9.60;99.90;;;;;;5071232;28;20043;-48
2020/12/15 02:04:36;;;;;;;16.92;2.30;;;9.60;99.90;;;;;;5070540;28;20036;-51
2020/12/15 02:07:02;;;;;;;10.98;1.80;;;9.70;99.90;;;;;;5071169;28;20032;-49
2020/12/15 02:09:29;;;;;;;17.83;2.10;;;9.60;99.90;;;;;;5070438;28;20082;-48
2020/12/15 02:11:55;;;;;;;12.70;2.08;;;9.60;99.90;;;;;;5071011;28;20276;-50
2020/12/15 02:14:21;;;;;;;14.18;1.95;;;9.60;99.90;;;;;;5070503;28;20623;-52
2020/12/15 02:16:50;;;;;;;13.15;2.10;;;9.60;99.90;;;;;;5071056;28;20064;-51
2020/12/15 02:19:18;;;;;;;15.02;2.10;;;9.60;99.90;;;;;;5070267;28;20089;-52
2020/12/15 02:21:47;;;;;;;26.13;3.40;;;9.50;99.90;;;;;;5070862;28;20041;-50
2020/12/15 02:24:13;;;;;;;23.13;1.92;;;9.60;99.90;;;;;;5070177;28;20033;-51
2020/12/15 02:26:40;;;;;;;18.02;2.22;;;9.60;99.90;;;;;;5070407;28;20039;-50
2020/12/15 02:29:05;;;;;;;9.10;2.47;;;9.60;99.90;;;;;;5070531;28;20024;-47
2020/12/15 02:31:31;;;;;;;25.30;2.40;;;9.50;99.90;;;;;;5072682;28;20117;-50
2020/12/15 02:33:57;;;;;;;19.33;2.50;;;9.50;99.90;;;;;;5071247;28;20470;-49
2020/12/15 02:36:22;;;;;;;15.57;1.98;;;9.50;99.90;;;;;;5071056;28;20264;-50
2020/12/15 02:38:48;;;;;;;25.15;3.22;;;9.50;99.90;;;;;;5070949;28;20036;-49
2020/12/15 02:41:14;;;;;;;24.52;2.75;;;9.50;99.90;;;;;;5073219;28;20032;-49
2020/12/15 02:43:39;;;;;;;24.65;2.30;;;9.50;99.90;;;;;;5070867;28;20064;-49
2020/12/15 02:46:05;;;;;;;32.80;2.63;;;9.50;99.90;;;;;;5078649;28;20032;-49
2020/12/15 02:48:30;;;;;;;21.35;2.30;;;9.50;99.90;;;;;;5091132;28;20074;-52
2020/12/15 02:50:56;;;;;;;25.67;2.60;;;9.50;99.90;;;;;;5090559;28;20044;-49
2020/12/15 02:53:22;;;;;;;19.17;2.67;;;9.50;99.90;;;;;;5091468;28;20038;-49
2020/12/15 02:55:47;;;;;;;21.02;2.60;;;9.60;99.90;;;;;;5090946;28;20024;-49
2020/12/15 02:58:13;;;;;;;25.75;2.08;;;9.60;99.90;;;;;;5091066;28;20036;-48
2020/12/15 03:00:38;;;;;;;20.48;2.00;;;9.60;99.90;;;;;;5089810;28;20035;-50
2020/12/15 03:03:04;;;;;;;30.30;2.45;;;9.70;99.90;;;;;;5087726;28;20035;-51
2020/12/15 03:05:30;;;;;;;16.17;2.70;;;9.70;99.90;;;;;;5091311;28;20475;-49
2020/12/15 03:07:56;;;;;;;17.70;2.97;;;9.70;99.90;;;;;;5091054;28;20040;-49
2020/12/15 03:10:21;;;;;;;22.67;2.40;;;9.70;99.90;;;;;;5090699;28;20032;-49
2020/12/15 03:12:47;;;;;;;14.98;2.60;;;9.70;99.90;;;;;;5090726;28;20055;-49
2020/12/15 03:15:13;;;;;;;20.90;2.60;;;9.80;99.90;;;;;;5091319;28;20511;-49
2020/12/15 03:17:39;;;;;;;33.20;3.25;;;9.90;99.90;;;;;;5091208;28;20028;-51
2020/12/15 03:20:04;;;;;;;23.13;2.35;;;9.80;99.90;;;;;;5090983;28;20131;-50
2020/12/15 03:22:30;;;;;;;35.03;4.47;;;9.80;99.90;;;;;;5091034;28;20051;-49
2020/12/15 03:24:56;;;;;;;21.88;2.45;;;9.80;99.90;;;;;;5090668;28;20470;-48
2020/12/15 03:27:21;;;;;;;22.70;2.95;;;9.80;99.90;;;;;;5090676;28;20039;-49
2020/12/15 03:29:47;;;;;;;17.70;3.28;;;9.80;99.90;;;;;;5091037;28;20035;-49
2020/12/15 03:32:13;;;;;;;36.60;2.75;;;9.80;99.90;;;;;;5090685;28;20047;-50
2020/12/15 03:34:38;;;;;;;20.23;2.75;;;9.70;99.90;;;;;;5090872;28;20105;-49
2020/12/15 03:37:04;;;;;;;17.58;2.35;;;9.70;99.90;;;;;;5090874;28;20133;-50
2020/12/15 03:39:30;;;;;;;28.52;2.97;;;9.70;99.90;;;;;;5090938;28;20676;-50
2020/12/15 03:41:55;;;;;;;33.97;3.13;;;9.80;99.90;;;;;;5091018;28;20035;-49
2020/12/15 03:44:23;;;;;;;23.58;2.80;;;9.80;99.90;;;;;;5091085;28;20028;-49
2020/12/15 03:46:48;;;;;;;23.52;2.63;;;9.70;99.90;;;;;;5090572;28;20032;-49
2020/12/15 03:49:15;;;;;;;37.15;4.20;;;9.70;99.90;;;;;;5091018;28;20063;-50
2020/12/15 03:51:40;;;;;;;21.23;2.33;;;9.80;99.90;;;;;;5090563;28;20458;-49
2020/12/15 03:54:06;;;;;;;24.83;2.78;;;9.90;99.90;;;;;;5090772;28;20028;-49
2020/12/15 03:56:32;;;;;;;19.77;2.60;;;10.00;99.90;;;;;;5089738;28;20031;-48
2020/12/15 03:58:57;;;;;;;20.27;2.50;;;10.00;99.90;;;;;;5090804;28;20021;-50
2020/12/15 04:01:23;;;;;;;31.15;2.88;;;10.00;99.90;;;;;;5090288;28;20050;-49
2020/12/15 04:03:49;;;;;;;23.10;2.42;;;10.10;99.90;;;;;;5090435;28;20052;-49
2020/12/15 04:06:14;;;;;;;22.35;2.83;;;10.00;99.90;;;;;;5090401;28;20072;-48
2020/12/15 04:08:41;;;;;;;21.02;2.58;;;9.90;99.90;;;;;;5090659;28;20032;-49
2020/12/15 04:11:07;;;;;;;28.77;3.80;;;9.90;99.90;;;;;;5089933;28;20067;-50
2020/12/15 04:13:33;;;;;;;23.75;3.17;;;9.90;99.90;;;;;;5089948;28;20771;-49
2020/12/15 04:15:59;;;;;;;19.40;2.65;;;9.90;99.90;;;;;;5090183;28;20043;-49
2020/12/15 04:18:24;;;;;;;20.85;2.70;;;9.80;99.90;;;;;;5090156;28;20032;-49
2020/12/15 04:20:51;;;;;;;17.90;2.08;;;9.80;99.90;;;;;;5088353;28;20437;-49
2020/12/15 04:23:18;;;;;;;24.95;3.42;;;9.90;99.90;;;;;;5088778;28;20065;-49
2020/12/15 04:26:01;;;;;;;30.75;3.22;;;10.00;99.90;;;;;;5090024;28;20075;-48
2020/12/15 04:28:27;;;;;;;28.07;3.37;;;10.00;99.90;;;;;;5089889;28;20085;-49
2020/12/15 04:30:52;;;;;;;28.20;3.42;;;10.00;99.90;;;;;;5090173;28;20276;-50
2020/12/15 04:33:19;;;;;;;21.83;3.08;;;9.90;99.90;;;;;;5089253;28;20517;-49
2020/12/15 04:35:44;;;;;;;27.67;3.40;;;9.90;99.90;;;;;;5071828;28;20219;-49
2020/12/15 04:38:12;;;;;;;32.35;4.15;;;9.80;99.90;;;;;;5069094;28;20111;-49
2020/12/15 04:40:37;;;;;;;28.00;3.85;;;9.80;99.90;;;;;;5068261;28;20040;-50
2020/12/15 04:43:06;;;;;;;24.52;2.55;;;9.80;99.90;;;;;;5069305;28;20036;-49
2020/12/15 04:45:35;;;;;;;22.35;3.20;;;9.80;99.90;;;;;;5069237;28;20103;-50
2020/12/15 04:48:09;;;;;;;41.42;3.70;;;9.80;99.90;;;;;;5069417;28;20021;-49
2020/12/15 04:50:38;;;;;;;20.33;3.30;;;9.90;99.90;;;;;;5068813;28;20039;-50
2020/12/15 04:53:10;;;;;;;25.77;3.58;;;9.90;99.90;;;;;;5068865;28;20129;-50
2020/12/15 04:55:37;;;;;;;29.65;4.00;;;9.90;99.90;;;;;;5068737;28;20730;-49
2020/12/15 04:58:04;;;;;;;27.45;3.28;;;9.80;99.90;;;;;;5069513;28;20089;-48
2020/12/15 05:00:30;;;;;;;21.77;3.55;;;9.70;99.90;;;;;;5083308;28;20028;-48
2020/12/15 05:02:57;;;;;;;23.65;3.08;;;9.70;99.90;;;;;;5089097;28;20366;-48
2020/12/15 05:05:26;;;;;;;31.08;3.80;;;9.70;99.90;;;;;;5071014;28;20077;-49
2020/12/15 05:07:54;;;;;;;23.60;3.40;;;9.70;99.90;;;;;;5088844;28;20429;-51
2020/12/15 05:10:20;;;;;;;24.85;3.38;;;9.70;99.90;;;;;;5088856;28;20040;-49
2020/12/15 05:12:47;;;;;;;24.67;3.30;;;9.70;99.90;;;;;;5085866;28;20051;-48
2020/12/15 05:15:17;;;;;;;37.35;3.72;;;9.70;99.90;;;;;;5089198;28;20110;-49
2020/12/15 05:17:43;;;;;;;37.20;3.97;;;9.70;99.90;;;;;;5089393;28;20130;-50
2020/12/15 05:20:10;;;;;;;28.30;3.42;;;9.60;99.90;;;;;;5088843;28;20107;-48
2020/12/15 05:22:48;;;;;;;33.00;3.72;;;9.60;99.90;;;;;;5090276;28;20040;-49
2020/12/15 05:25:40;;;;;;;41.15;3.90;;;9.60;99.90;;;;;;5092886;28;20235;-50
2020/12/15 05:28:14;;;;;;;30.40;3.65;;;9.70;99.90;;;;;;5089544;28;20044;-48
2020/12/15 05:30:41;;;;;;;33.10;3.90;;;9.70;99.90;;;;;;5093658;28;20340;-49
2020/12/15 05:33:16;;;;;;;52.78;4.78;;;9.80;99.90;;;;;;5093061;28;20040;-50
2020/12/15 05:35:43;;;;;;;36.88;3.90;;;9.70;99.90;;;;;;5092777;28;20035;-49
2020/12/15 05:38:09;;;;;;;36.30;4.05;;;9.80;99.90;;;;;;5092961;28;20546;-51
2020/12/15 05:40:37;;;;;;;45.67;4.22;;;9.80;99.90;;;;;;5092956;28;20032;-50
2020/12/15 05:43:05;;;;;;;29.48;4.53;;;9.80;99.90;;;;;;5092820;28;20103;-49
2020/12/15 05:45:33;;;;;;;31.83;3.90;;;9.90;99.90;;;;;;5092723;28;20031;-48
2020/12/15 05:48:06;;;;;;;30.65;3.90;;;9.80;99.90;;;;;;5078952;28;20481;-50
2020/12/15 05:50:33;;;;;;;28.95;3.38;;;9.80;99.90;;;;;;5071915;28;20033;-49
2020/12/15 05:53:06;;;;;;;29.70;3.92;;;9.80;99.90;;;;;;5053974;28;20049;-49
2020/12/15 05:55:32;;;;;;;28.42;5.45;;;9.80;99.90;;;;;;5071800;28;20116;-49
2020/12/15 05:58:00;;;;;;;34.38;3.65;;;9.90;99.90;;;;;;5071357;28;20092;-49
2020/12/15 06:00:28;;;;;;;30.33;3.75;;;9.90;99.90;;;;;;5084992;28;20036;-48
2020/12/15 06:03:00;;;;;;;28.20;4.13;;;9.90;99.90;;;;;;5078413;28;20092;-49
2020/12/15 06:05:28;;;;;;;29.73;3.55;;;10.00;99.90;;;;;;5090793;28;20032;-49
2020/12/15 06:07:58;;;;;;;33.83;3.40;;;10.10;99.90;;;;;;5081839;28;20111;-48
2020/12/15 06:10:26;;;;;;;30.23;3.55;;;10.10;99.90;;;;;;5070851;28;20093;-48
2020/12/15 06:12:52;;;;;;;29.67;3.42;;;10.00;99.90;;;;;;5070621;28;20044;-48
2020/12/15 06:15:18;;;;;;;28.50;2.95;;;10.00;99.90;;;;;;5075803;28;20036;-48
2020/12/15 06:17:49;;;;;;;23.77;3.03;;;9.90;99.90;;;;;;5090986;28;20505;-48
2020/12/15 06:20:19;;;;;;;33.13;4.20;;;9.90;99.90;;;;;;5082416;28;20090;-48
2020/12/15 06:22:46;;;;;;;46.88;5.25;;;9.90;99.90;;;;;;5091112;28;20164;-47
2020/12/15 06:25:11;;;;;;;51.17;5.43;;;9.90;99.90;;;;;;5089329;28;20032;-48
2020/12/15 06:27:37;;;;;;;35.63;4.22;;;9.90;99.90;;;;;;5088748;28;20038;-47
2020/12/15 06:30:07;;;;;;;39.58;3.38;;;9.90;99.90;;;;;;5090096;28;20047;-48
2020/12/15 06:32:32;;;;;;;41.65;4.25;;;9.90;99.90;;;;;;5070147;28;20440;-47
2020/12/15 06:34:58;;;;;;;30.20;3.67;;;9.90;99.90;;;;;;5069997;28;20032;-48
2020/12/15 06:37:25;;;;;;;27.23;3.60;;;9.90;99.90;;;;;;5070085;28;20041;-48
2020/12/15 06:40:04;;;;;;;34.65;5.10;;;10.00;99.90;;;;;;5069959;28;20409;-47
2020/12/15 06:42:30;;;;;;;25.40;4.38;;;10.10;99.90;;;;;;5085409;28;20036;-49
2020/12/15 06:45:08;;;;;;;30.25;4.60;;;10.00;99.90;;;;;;5069970;28;20124;-48
2020/12/15 06:47:36;;;;;;;27.98;4.03;;;10.00;99.90;;;;;;5072333;28;20671;-47
2020/12/15 06:50:15;;;;;;;37.28;3.60;;;10.00;99.90;;;;;;5051616;28;20116;-48
2020/12/15 06:52:41;;;;;;;25.30;3.88;;;9.90;99.90;;;;;;5069281;28;20040;-47
2020/12/15 06:55:07;;;;;;;33.50;4.32;;;10.00;99.90;;;;;;5069190;28;20078;-48
2020/12/15 06:57:35;;;;;;;39.55;4.70;;;9.90;99.90;;;;;;5069369;28;20025;-48
2020/12/15 07:00:08;;;;;;;39.72;4.47;;;10.10;99.90;;;;;;5080062;28;20489;-47
2020/12/15 07:02:34;;;;;;;41.17;4.13;;;10.10;99.90;;;;;;5089075;28;20024;-47
2020/12/15 07:05:26;;;;;;;36.17;3.88;;;10.00;99.90;;;;;;5086437;28;20040;-47
2020/12/15 07:07:57;;;;;;;44.38;4.72;;;10.00;99.90;;;;;;5070174;28;20029;-47
2020/12/15 07:10:25;;;;;;;43.92;4.68;;;10.00;99.90;;;;;;5068231;28;20029;-48
2020/12/15 07:12:51;;;;;;;43.15;5.10;;;10.10;99.90;;;;;;5081075;28;20044;-49
2020/12/15 07:15:18;;;;;;;42.42;5.07;;;10.10;99.90;;;;;;5088801;28;20477;-48
2020/12/15 07:17:54;;;;;;;50.05;5.03;;;10.10;99.90;;;;;;5088828;28;20069;-48
2020/12/15 07:20:21;;;;;;;38.08;4.13;;;10.10;99.90;;;;;;5088613;28;20632;-50
2020/12/15 07:22:47;;;;;;;25.55;3.22;;;10.10;99.90;;;;;;5088087;28;20036;-49
2020/12/15 07:25:14;;;;;;;40.33;3.30;;;10.10;99.90;;;;;;5088456;28;20512;-48
2020/12/15 07:27:41;;;;;;;37.58;3.83;;;10.10;99.90;;;;;;5088717;28;20075;-49
2020/12/15 07:30:11;;;;;;;39.80;3.28;;;10.00;99.90;;;;;;5086286;28;20046;-48
2020/12/15 07:32:38;;;;;;;33.53;4.43;;;10.00;99.90;;;;;;5086629;28;20062;-48
2020/12/15 07:35:06;;;;;;;30.10;3.25;;;10.10;99.90;;;;;;5088006;28;20035;-48
2020/12/15 07:37:42;;;;;;;29.77;3.63;;;10.10;99.90;;;;;;5087851;28;20144;-48
2020/12/15 07:40:11;;;;;;;29.50;4.65;;;10.20;99.90;;;;;;5066785;28;20032;-50
2020/12/15 07:42:37;;;;;;;24.40;3.75;;;10.10;99.90;;;;;;5077702;28;20021;-49
2020/12/15 07:45:08;;;;;;;30.92;3.92;;;10.20;99.90;;;;;;5078593;28;20024;-47
2020/12/15 07:47:42;;;;;;;30.33;3.25;;;10.20;99.90;;;;;;5087346;28;20031;-49
2020/12/15 07:50:08;;;;;;;;;;;10.20;99.90;;;;;;5084195;28;20504;-49
2020/12/15 07:52:36;;;;;;;30.25;4.00;;;10.20;99.90;;;;;;5081504;28;19916;-48
2020/12/15 07:55:13;;;;;;;39.90;5.15;;;10.20;99.90;;;;;;5081971;28;20419;-48
2020/12/15 07:57:41;;;;;;;33.35;3.67;;;10.30;99.90;;;;;;5082406;28;20031;-49
2020/12/15 08:00:16;;;;;;;35.58;4.35;;;10.30;99.90;;;;;;5087841;28;20067;-49
2020/12/15 08:02:43;;;;;;;41.50;5.20;;;10.30;99.90;;;;;;5072985;28;20032;-49
2020/12/15 08:05:17;;;;;;;41.58;5.00;;;10.30;99.90;;;;;;5079695;28;20043;-49
2020/12/15 08:07:47;;;;;;;32.13;5.45;;;10.40;99.90;;;;;;5085094;28;20499;-49
2020/12/15 08:10:15;;;;;;;41.75;4.85;;;10.40;99.90;;;;;;5085956;28;20077;-50
2020/12/15 08:12:41;;;;;;;51.20;4.55;;;10.40;99.90;;;;;;5087461;28;20028;-49
2020/12/15 08:15:08;;;;;;;26.70;3.63;;;10.40;99.90;;;;;;5086089;28;20062;-51
2020/12/15 08:17:34;;;;;;;33.67;4.13;;;10.50;99.90;;;;;;5084511;28;20082;-50
2020/12/15 08:20:06;;;;;;;29.95;4.18;;;10.40;99.90;;;;;;5087249;28;20536;-49
2020/12/15 08:22:38;;;;;;;51.92;4.93;;;10.40;99.90;;;;;;5084101;28;20048;-49
2020/12/15 08:25:04;;;;;;;42.78;5.43;;;10.40;99.90;;;;;;5086344;28;20035;-50
2020/12/15 08:27:29;;;;;;;44.63;4.97;;;10.40;99.90;;;;;;5063516;28;20029;-49
2020/12/15 08:30:42;;;;;;;46.08;4.43;;;10.40;99.90;;;;;;5088427;28;20453;-49
2020/12/15 08:33:07;;;;;;;40.83;6.28;;;10.40;99.90;;;;;;5086983;28;20073;-49
2020/12/15 08:35:33;;;;;;;33.58;5.65;;;10.30;99.90;;;;;;5085889;28;20036;-48
2020/12/15 08:38:02;;;;;;;45.05;6.10;;;10.30;99.90;;;;;;5087241;28;20038;-48
2020/12/15 08:40:29;;;;;;;47.00;4.68;;;10.20;99.90;;;;;;5086788;28;20024;-49
2020/12/15 08:42:59;;;;;;;46.10;5.20;;;10.20;99.90;;;;;;5087400;28;20042;-50
2020/12/15 08:45:28;;;;;;;49.65;5.63;;;10.10;99.90;;;;;;5070211;28;20047;-49
2020/12/15 08:47:55;;;;;;;35.70;4.80;;;10.20;99.90;;;;;;5067076;28;20062;-49
2020/12/15 08:50:25;;;;;;;34.90;4.35;;;10.20;99.90;;;;;;5048785;28;20033;-50
2020/12/15 08:52:51;;;;;;;35.35;4.30;;;10.30;99.90;;;;;;5067003;28;20537;-49
2020/12/15 08:55:27;;;;;;;33.90;4.47;;;10.40;99.90;;;;;;5067176;28;20028;-52
2020/12/15 08:58:01;;;;;;;34.03;4.88;;;10.40;99.90;;;;;;5066662;28;20113;-51
2020/12/15 09:00:28;;;;;;;32.70;5.75;;;10.40;99.90;;;;;;5073940;28;20024;-51
2020/12/15 09:03:13;;;;;;;33.03;4.03;;;10.50;99.90;;;;;;5077857;28;20024;-50
2020/12/15 09:05:56;;;;;;;31.13;5.05;;;10.60;99.90;;;;;;5066591;28;20037;-51
2020/12/15 09:08:26;;;;;;;50.20;5.43;;;10.60;99.90;;;;;;5070815;28;20466;-51
2020/12/15 09:10:54;;;;;;;42.75;5.20;;;10.60;99.90;;;;;;5066739;28;20063;-52
2020/12/15 09:13:20;;;;;;;36.15;5.60;;;10.60;99.90;;;;;;5066463;28;20055;-52
2020/12/15 09:15:56;;;;;;;37.85;4.80;;;10.60;99.90;;;;;;5066620;28;20055;-50
2020/12/15 09:18:29;;;;;;;38.63;4.50;;;10.60;99.90;;;;;;5067143;28;20450;-52
2020/12/15 09:20:55;;;;;;;;;;;10.60;99.90;;;;;;5067167;28;20115;-51
2020/12/15 09:23:26;;;;;;;32.92;4.28;;;10.70;99.90;;;;;;5066705;28;20011;-52
2020/12/15 09:25:56;;;;;;;40.20;4.45;;;10.70;99.90;;;;;;5066567;28;20028;-50
2020/12/15 09:28:26;;;;;;;29.40;4.03;;;10.70;99.90;;;;;;5066466;28;20078;-52
2020/12/15 09:30:52;;;;;;;33.95;4.40;;;10.80;99.90;;;;;;5066911;28;20033;-50
2020/12/15 09:33:17;;;;;;;42.15;4.55;;;10.80;99.90;;;;;;5066106;28;20095;-50
2020/12/15 09:35:44;;;;;;;34.90;4.55;;;10.90;99.90;;;;;;5066805;28;20108;-50
2020/12/15 09:38:09;;;;;;;27.42;3.88;;;10.80;99.90;;;;;;5066818;28;20679;-50
2020/12/15 09:40:35;;;;;;;33.38;5.03;;;10.80;99.90;;;;;;5066682;28;20037;-52
2020/12/15 09:43:01;;;;;;;43.53;4.70;;;10.90;99.90;;;;;;5067043;28;20082;-53
2020/12/15 09:45:27;;;;;;;28.48;3.78;;;10.90;99.90;;;;;;5067171;28;20075;-52
2020/12/15 09:47:52;;;;;;;30.40;3.65;;;10.90;99.90;;;;;;5066665;28;20025;-52
2020/12/15 09:50:18;;;;;;;30.48;4.07;;;10.90;99.90;;;;;;5066679;28;20020;-52
2020/12/15 09:52:44;;;;;;;31.23;4.55;;;10.90;99.90;;;;;;5066636;28;20056;-51
2020/12/15 09:55:09;;;;;;;29.08;4.13;;;11.00;99.90;;;;;;5066655;28;20032;-52
2020/12/15 09:57:35;;;;;;;29.65;3.90;;;11.00;99.90;;;;;;5066601;28;20503;-52
2020/12/15 10:00:01;;;;;;;35.53;4.65;;;11.10;99.90;;;;;;5066279;28;20039;-49
2020/12/15 10:02:26;;;;;;;29.50;4.15;;;11.10;99.90;;;;;;5066088;28;20091;-50
2020/12/15 10:04:52;;;;;;;28.45;3.97;;;11.10;99.90;;;;;;5066506;28;20036;-51
2020/12/15 10:07:20;;;;;;;45.58;3.72;;;11.10;99.90;;;;;;5066657;28;20070;-49
2020/12/15 10:09:45;;;;;;;39.80;5.68;;;11.20;99.90;;;;;;5069330;28;20040;-50
2020/12/15 10:12:11;;;;;;;42.83;5.75;;;11.30;99.90;;;;;;5051827;28;20044;-51
2020/12/15 10:14:37;;;;;;;41.92;4.85;;;11.30;99.90;;;;;;5070110;28;20028;-53
2020/12/15 10:17:02;;;;;;;30.38;4.95;;;11.30;99.90;;;;;;5070523;28;20082;-50
2020/12/15 10:19:28;;;;;;;29.63;3.90;;;11.30;99.90;;;;;;5069843;28;20025;-52
2020/12/15 10:21:57;;;;;;;36.38;4.03;;;11.40;99.90;;;;;;5070232;28;20059;-48
2020/12/15 10:24:22;;;;;;;29.30;3.50;;;11.40;99.90;;;;;;5069837;28;20051;-50
2020/12/15 10:26:48;;;;;;;36.47;4.28;;;11.40;99.90;;;;;;5069902;28;20032;-52
2020/12/15 10:29:14;;;;;;;36.97;4.65;;;11.40;99.90;;;;;;5070246;28;20085;-52
2020/12/15 10:31:39;;;;;;;38.97;4.65;;;11.40;99.90;;;;;;5072106;28;20036;-52
2020/12/15 10:34:05;;;;;;;36.50;5.38;;;11.50;99.90;;;;;;5069801;28;20455;-51
2020/12/15 10:36:30;;;;;;;33.97;4.18;;;11.50;99.90;;;;;;5069555;28;20033;-53
2020/12/15 10:38:56;;;;;;;25.55;3.40;;;11.60;99.90;;;;;;5069537;28;20081;-54
2020/12/15 10:41:26;;;;;;;26.23;4.18;;;11.50;99.90;;;;;;5069507;28;20037;-49
2020/12/15 10:43:52;;;;;;;31.88;5.80;;;11.60;99.90;;;;;;5069313;28;20050;-53
2020/12/15 10:46:27;;;;;;;34.47;3.42;;;11.60;99.90;;;;;;5069582;28;20028;-53
2020/12/15 10:48:53;;;;;;;24.98;3.38;;;11.60;99.90;;;;;;5069589;28;20098;-55
2020/12/15 10:51:19;;;;;;;33.97;4.05;;;11.60;99.90;;;;;;5069164;28;20036;-50
2020/12/15 10:53:44;;;;;;;32.50;4.40;;;11.60;99.90;;;;;;5068957;28;20047;-49
2020/12/15 10:56:13;;;;;;;32.67;4.47;;;11.60;99.90;;;;;;5069503;28;20183;-52
2020/12/15 10:58:39;;;;;;;28.00;4.15;;;11.60;99.90;;;;;;5071349;28;20109;-49
2020/12/15 11:01:07;;;;;;;43.05;5.15;;;11.60;99.90;;;;;;5069016;28;20037;-47
2020/12/15 11:03:32;;;;;;;33.20;4.50;;;11.70;99.90;;;;;;5069559;28;20036;-51
2020/12/15 11:05:58;;;;;;;38.88;4.75;;;11.80;99.90;;;;;;5069186;28;20077;-51
2020/12/15 11:08:24;;;;;;;28.08;3.88;;;11.90;99.90;;;;;;5068942;28;20033;-52
2020/12/15 11:10:50;;;;;;;29.00;5.20;;;11.90;99.90;;;;;;5069081;28;20423;-51
2020/12/15 11:13:16;;;;;;;26.73;3.90;;;11.90;99.90;;;;;;5068934;28;20044;-50
2020/12/15 11:15:43;;;;;;;32.88;4.10;;;11.80;99.90;;;;;;5068625;28;20038;-51
2020/12/15 11:18:08;;;;;;;45.40;5.65;;;11.80;99.90;;;;;;5069014;28;20116;-51
2020/12/15 11:20:34;;;;;;;35.83;4.80;;;11.90;99.90;;;;;;5067896;28;20466;-50
2020/12/15 11:23:01;;;;;;;21.02;3.50;;;12.00;99.90;;;;;;5068979;28;20440;-50
2020/12/15 11:25:27;;;;;;;30.77;4.47;;;12.10;99.90;;;;;;5068738;28;20032;-51
2020/12/15 11:27:53;;;;;;;29.00;4.22;;;12.00;99.90;;;;;;5069113;28;20433;-50
2020/12/15 11:30:19;;;;;;;32.92;4.25;;;12.10;99.90;;;;;;5068933;28;20438;-52
2020/12/15 11:32:46;;;;;;;34.75;4.10;;;12.20;99.90;;;;;;5069043;28;20076;-53
2020/12/15 11:35:12;;;;;;;32.05;4.28;;;12.20;99.90;;;;;;5068844;28;20028;-49
2020/12/15 11:37:40;;;;;;;21.80;4.03;;;12.30;99.90;;;;;;5068653;28;20777;-53
2020/12/15 11:40:07;;;;;;;33.22;4.22;;;12.40;99.90;;;;;;5068579;28;20127;-51
2020/12/15 11:42:33;;;;;;;28.52;3.63;;;12.60;99.90;;;;;;5068128;28;20028;-51
2020/12/15 11:44:58;;;;;;;38.92;4.30;;;12.60;99.90;;;;;;5068454;28;20036;-49
2020/12/15 11:47:24;;;;;;;24.77;3.85;;;12.60;99.90;;;;;;5066250;28;20033;-53
2020/12/15 11:49:50;;;;;;;33.45;4.35;;;12.70;99.90;;;;;;5067896;28;20028;-50
2020/12/15 11:52:16;;;;;;;30.00;4.45;;;12.90;99.90;;;;;;5068016;28;20048;-51
2020/12/15 11:54:42;;;;;;;36.95;4.22;;;13.00;99.90;;;;;;5067798;28;20034;-53
2020/12/15 11:57:10;;;;;;;24.15;3.85;;;12.90;99.90;;;;;;5067020;28;20060;-49
2020/12/15 11:59:37;;;;;;;34.17;5.28;;;13.00;99.90;;;;;;5067054;28;20036;-52
2020/12/15 12:02:04;;;;;;;36.78;5.45;;;13.00;99.90;;;;;;5067205;28;20033;-50
2020/12/15 12:04:30;;;;;;;32.03;5.25;;;13.20;99.90;;;;;;5066974;28;20028;-49
2020/12/15 12:06:55;;;;;;;31.08;4.32;;;13.50;99.90;;;;;;5067693;28;20086;-52
2020/12/15 12:09:21;;;;;;;35.75;4.93;;;13.50;99.90;;;;;;5068272;28;20077;-49
2020/12/15 12:11:47;;;;;;;32.13;5.57;;;13.60;99.90;;;;;;5067744;28;20048;-55
2020/12/15 12:14:13;;;;;;;31.08;4.10;;;13.60;99.90;;;;;;5067553;28;20028;-51
2020/12/15 12:16:39;;;;;;;32.83;4.18;;;13.80;99.90;;;;;;5068222;28;20028;-50
2020/12/15 12:19:05;;;;;;;37.08;4.70;;;14.00;99.90;;;;;;5067258;28;20094;-50
2020/12/15 12:21:34;;;;;;;31.50;4.57;;;13.90;99.90;;;;;;5067561;28;20090;-50
2020/12/15 12:24:00;;;;;;;46.40;4.60;;;13.60;99.90;;;;;;5080125;28;20047;-50
2020/12/15 12:26:26;;;;;;;32.30;4.18;;;13.70;99.90;;;;;;5088246;28;20501;-49
2020/12/15 12:28:53;;;;;;;41.30;4.70;;;13.90;99.90;;;;;;5076067;28;20058;-52
2020/12/15 12:31:19;;;;;;;33.22;4.78;;;13.90;99.90;;;;;;5067614;28;20036;-51
2020/12/15 12:33:45;;;;;;;34.10;4.32;;;14.00;99.90;;;;;;5067364;28;20020;-49
2020/12/15 12:36:11;;;;;;;26.17;3.90;;;14.20;99.90;;;;;;5067745;28;20024;-49
2020/12/15 12:38:39;;;;;;;32.13;4.20;;;14.10;99.90;;;;;;5067133;28;20307;-50
2020/12/15 12:41:05;;;;;;;34.17;4.00;;;14.20;99.90;;;;;;5067103;28;20753;-50
2020/12/15 12:43:31;;;;;;;31.35;4.00;;;14.40;99.90;;;;;;5066916;28;20028;-51